Time;durP1;ratioP1;P1;durP2;ratioP2;P2;SDS_P1;SDS_P2;PMS_P1;PMS_P2;Temp;Humidity;BMP_temperature;BMP_pressure;BME280_temperature;BME280_humidity;BME280_pressure;Samples;Min_cycle;Max_cycle;Signal;HPM_P1;HPM_P2
2023/01/06 18:14:19;;;;;;;16.35;11.13;;;;;;;15.21;57.73;97582.81;5098911;27;20663;-26
2023/01/06 18:16:48;;;;;;;18.25;10.98;;;;;;;15.45;57.00;97579.44;5071617;28;20041;-26
2023/01/06 18:19:24;;;;;;;16.58;11.02;;;;;;;15.59;56.40;97585.78;5068674;28;20021;-25
2023/01/06 18:21:50;;;;;;;15.73;10.65;;;;;;;15.68;56.38;97581.25;5050619;28;20028;-26
2023/01/06 18:24:24;;;;;;;20.17;11.27;;;;;;;15.70;56.27;97583.53;5050351;28;20033;-25
2023/01/06 18:26:54;;;;;;;15.10;11.45;;;;;;;15.77;56.13;97588.81;5075451;28;20040;-26
2023/01/06 18:29:28;;;;;;;21.48;12.32;;;;;;;15.72;56.34;97575.66;5056859;28;20021;-26
2023/01/06 18:31:54;;;;;;;18.48;12.02;;;;;;;15.67;56.54;97589.88;5088495;28;20024;-26
2023/01/06 18:34:39;;;;;;;18.65;12.30;;;;;;;15.59;56.90;97583.03;5073055;28;20024;-26
2023/01/06 18:37:05;;;;;;;17.98;11.80;;;;;;;15.74;56.44;97584.19;5067958;28;20021;-26
2023/01/06 18:39:46;;;;;;;14.73;10.95;;;;;;;15.71;56.40;97580.34;5074249;28;20028;-25
2023/01/06 18:42:29;;;;;;;20.77;11.65;;;;;;;15.70;56.42;97587.03;5068612;28;20021;-26
2023/01/06 18:45:00;;;;;;;15.67;10.93;;;;;;;15.72;56.11;97592.06;5068104;28;20033;-26
2023/01/06 18:47:28;;;;;;;19.40;11.15;;;;;;;15.63;56.58;97583.72;5067995;28;20365;-25
2023/01/06 18:50:00;;;;;;;18.42;13.13;;;;;;;15.74;56.27;97595.91;5065662;28;20021;-26
2023/01/06 18:52:44;;;;;;;19.80;13.68;;;;;;;15.75;56.29;97583.00;5086699;28;20024;-26
2023/01/06 18:55:33;;;;;;;19.58;13.32;;;;;;;15.76;56.36;97584.53;5069877;28;20104;-26
2023/01/06 18:58:12;;;;;;;22.30;14.25;;;;;;;15.71;56.51;97602.22;5070272;28;20104;-26
2023/01/06 19:00:41;;;;;;;18.77;12.93;;;;;;;15.66;56.65;97596.53;5077661;28;20535;-26
2023/01/06 19:03:54;;;;;;;18.13;12.82;;;;;;;15.78;56.23;97596.59;5078006;28;20044;-26
2023/01/06 19:06:54;;;;;;;19.33;11.93;;;;;;;15.79;56.32;97602.84;5066490;28;20083;-26
2023/01/06 19:09:31;;;;;;;18.02;11.95;;;;;;;15.84;56.17;97596.03;5049055;28;20097;-27
2023/01/06 19:12:21;;;;;;;18.70;12.20;;;;;;;15.79;56.25;97603.59;5077857;28;20483;-26
2023/01/06 19:14:50;;;;;;;15.77;11.60;;;;;;;15.71;56.43;97604.19;5047200;28;20511;-26
2023/01/06 19:17:21;;;;;;;18.27;12.43;;;;;;;15.78;56.29;97601.28;5056880;28;20032;-26
2023/01/06 19:19:47;;;;;;;18.80;12.48;;;;;;;15.72;56.44;97595.56;5066803;28;20090;-25
2023/01/06 19:22:13;;;;;;;16.80;12.20;;;;;;;15.69;56.63;97599.19;5055396;28;20453;-26
2023/01/06 19:24:54;;;;;;;16.58;11.38;;;;;;;15.64;56.67;97596.19;5037523;28;20041;-26
2023/01/06 19:27:57;;;;;;;17.70;11.23;;;;;;;15.75;56.45;97608.38;5034759;28;20425;-26
2023/01/06 19:30:25;;;;;;;14.18;9.73;;;;;;;15.81;56.23;97611.38;5037897;28;20488;-26
2023/01/06 19:32:51;;;;;;;15.05;11.20;;;;;;;15.73;56.57;97602.56;5037541;28;20033;-26
2023/01/06 19:35:25;;;;;;;15.90;10.48;;;;;;;15.65;56.67;97598.50;5039580;28;20039;-26
2023/01/06 19:38:05;;;;;;;16.88;11.43;;;;;;;15.86;56.09;97597.16;5053391;28;20040;-26
2023/01/06 19:40:37;;;;;;;16.05;10.13;;;;;;;15.80;56.17;97598.91;5040620;28;20146;-26
2023/01/06 19:43:15;;;;;;;17.33;10.20;;;;;;;15.72;56.44;97603.00;5035589;28;20017;-26
2023/01/06 19:45:41;;;;;;;15.05;10.18;;;;;;;15.67;56.53;97600.81;5042161;28;20536;-26
2023/01/06 19:48:48;;;;;;;15.02;10.52;;;;;;;15.79;56.27;97600.88;5033381;28;20052;-26
2023/01/06 19:51:19;;;;;;;16.63;10.20;;;;;;;15.72;56.45;97603.00;4946849;29;20031;-26
2023/01/06 19:53:52;;;;;;;14.32;9.50;;;;;;;15.65;56.71;97597.75;4942013;29;20042;-27
2023/01/06 19:56:23;;;;;;;14.48;9.55;;;;;;;15.78;56.32;97593.84;4940727;29;20050;-26
2023/01/06 19:59:02;;;;;;;13.65;9.23;;;;;;;15.78;56.11;97593.09;4940019;28;20034;-26
2023/01/06 20:01:31;;;;;;;13.82;8.85;;;;;;;15.72;56.36;97600.28;4948230;29;20031;-26
2023/01/06 20:03:56;;;;;;;13.00;7.60;;;;;;;15.70;56.46;97605.44;4925857;29;20040;-26
2023/01/06 20:06:23;;;;;;;13.30;9.27;;;;;;;15.70;56.39;97599.97;4945889;28;20046;-26
2023/01/06 20:08:52;;;;;;;13.50;8.40;;;;;;;15.72;56.31;97601.03;4951184;28;20114;-26
2023/01/06 20:11:21;;;;;;;12.05;8.43;;;;;;;15.78;56.47;97599.31;4943312;28;20487;-25
2023/01/06 20:13:46;;;;;;;11.98;7.45;;;;;;;15.72;56.13;97601.03;4981240;28;20050;-26
2023/01/06 20:16:12;;;;;;;12.55;7.95;;;;;;;15.78;56.20;97596.59;4990761;28;20193;-26
2023/01/06 20:18:37;;;;;;;11.52;8.10;;;;;;;15.83;55.91;97606.22;4979001;28;20760;-26
2023/01/06 20:21:03;;;;;;;12.23;7.63;;;;;;;15.76;56.21;97603.69;4988076;28;20816;-26
2023/01/06 20:23:29;;;;;;;10.52;7.50;;;;;;;15.65;56.47;97597.75;4979221;28;20052;-27
2023/01/06 20:25:54;;;;;;;10.43;7.28;;;;;;;15.67;56.45;97596.13;5038760;28;20044;-25
2023/01/06 20:28:20;;;;;;;11.52;8.10;;;;;;;15.75;56.26;97591.97;5056370;28;20468;-25
2023/01/06 20:30:46;;;;;;;11.27;7.70;;;;;;;15.86;55.81;97593.66;5052753;28;20388;-26
2023/01/06 20:33:12;;;;;;;10.40;7.22;;;;;;;15.89;55.43;97601.00;5053299;28;20024;-26
2023/01/06 20:35:38;;;;;;;10.02;7.40;;;;;;;15.85;55.78;97590.16;5065851;28;20028;-26
2023/01/06 20:38:04;;;;;;;9.85;7.45;;;;;;;15.79;55.97;97600.09;5059823;28;20024;-27
2023/01/06 20:40:29;;;;;;;10.30;6.63;;;;;;;15.68;56.24;97594.91;5053199;28;20033;-26
2023/01/06 20:42:55;;;;;;;12.02;7.75;;;;;;;15.70;56.28;97595.22;5062194;28;20031;-26
2023/01/06 20:45:20;;;;;;;10.68;7.55;;;;;;;15.68;56.24;97596.88;5056647;28;20491;-26
2023/01/06 20:47:45;;;;;;;10.10;7.38;;;;;;;15.71;56.30;97591.28;5054166;28;20119;-26
2023/01/06 20:50:13;;;;;;;9.43;6.97;;;;;;;15.85;55.84;97589.38;5059093;28;20032;-26
2023/01/06 20:52:44;;;;;;;10.25;7.40;;;;;;;15.82;55.88;97591.78;5061349;28;20526;-26
2023/01/06 20:55:10;;;;;;;11.43;7.50;;;;;;;15.90;55.59;97581.41;5050976;28;20396;-26
2023/01/06 20:57:36;;;;;;;10.45;7.00;;;;;;;15.82;55.96;97587.53;5056340;28;20350;-27
2023/01/06 21:00:02;;;;;;;9.68;7.22;;;;;;;15.77;56.00;97588.81;5052172;28;20082;-26
2023/01/06 21:02:28;;;;;;;9.60;6.57;;;;;;;15.74;56.11;97592.41;5056889;28;20366;-26
2023/01/06 21:04:53;;;;;;;11.40;6.80;;;;;;;15.68;56.24;97603.13;5056459;28;20507;-26
2023/01/06 21:07:18;;;;;;;8.23;6.13;;;;;;;15.70;56.24;97600.69;5059364;28;20028;-27
2023/01/06 21:09:44;;;;;;;10.00;6.45;;;;;;;15.73;56.13;97599.84;5060726;28;20024;-26
2023/01/06 21:12:09;;;;;;;10.50;7.05;;;;;;;15.80;56.00;97604.38;5059463;28;20057;-28
2023/01/06 21:14:35;;;;;;;10.45;6.78;;;;;;;15.70;56.28;97610.91;5051123;28;20043;-26
2023/01/06 21:17:02;;;;;;;8.48;6.55;;;;;;;15.61;56.62;97614.22;5039747;28;20071;-26
2023/01/06 21:19:28;;;;;;;12.05;7.40;;;;;;;15.55;56.79;97609.72;5034352;28;20195;-26
2023/01/06 21:21:53;;;;;;;8.93;6.38;;;;;;;15.67;56.37;97607.06;5033412;28;20111;-26
2023/01/06 21:24:18;;;;;;;8.60;6.30;;;;;;;15.68;56.52;97602.34;5040119;28;20021;-26
2023/01/06 21:26:44;;;;;;;8.60;6.07;;;;;;;15.69;56.33;97604.66;5029208;28;20120;-26
2023/01/06 21:29:09;;;;;;;8.18;6.05;;;;;;;15.62;56.62;97599.34;5045469;28;20053;-27
2023/01/06 21:31:35;;;;;;;9.73;6.72;;;;;;;15.61;56.76;97608.00;5046254;28;20465;-26
2023/01/06 21:34:00;;;;;;;10.43;6.57;;;;;;;15.73;56.57;97608.03;5045008;28;20025;-27
2023/01/06 21:36:26;;;;;;;9.40;7.13;;;;;;;15.72;56.61;97605.75;5013515;28;20029;-26
2023/01/06 21:38:51;;;;;;;10.40;6.95;;;;;;;15.67;56.76;97600.81;5034132;28;20135;-26
2023/01/06 21:44:00;;;;;;;11.25;7.20;;;;;;;15.62;56.91;97609.53;5038833;28;20048;-26
2023/01/06 21:46:26;;;;;;;13.07;7.95;;;;;;;15.76;56.68;97609.16;5038650;28;20013;-26
2023/01/06 21:48:51;;;;;;;9.77;6.72;;;;;;;15.89;56.12;97609.97;5042589;28;20029;-26
2023/01/06 21:51:17;;;;;;;12.02;7.53;;;;;;;15.76;56.45;97604.47;5029996;28;20029;-26
2023/01/06 21:53:43;;;;;;;8.82;6.50;;;;;;;15.70;56.44;97605.44;5031892;28;20052;-26
2023/01/06 21:56:08;;;;;;;10.10;6.90;;;;;;;15.84;56.27;97604.25;5038382;28;20029;-26
2023/01/06 21:58:34;;;;;;;9.88;6.32;;;;;;;15.92;55.85;97606.38;5032892;28;20021;-26
2023/01/06 22:01:00;;;;;;;8.48;6.75;;;;;;;15.83;56.01;97608.94;5039244;28;20025;-26
2023/01/06 22:03:25;;;;;;;11.32;6.50;;;;;;;15.92;55.89;97606.38;5040672;28;20029;-25
2023/01/06 22:05:51;;;;;;;9.93;7.30;;;;;;;15.83;56.19;97614.41;5031162;28;20083;-26
2023/01/06 22:08:17;;;;;;;10.43;6.40;;;;;;;15.94;55.96;97609.47;5019512;28;20041;-25
2023/01/06 22:10:43;;;;;;;9.00;6.18;;;;;;;15.77;56.24;97610.69;5030891;28;20037;-26
2023/01/06 22:13:12;;;;;;;8.85;6.38;;;;;;;15.72;56.55;97619.41;5040328;28;20045;-26
2023/01/06 22:15:39;;;;;;;7.95;5.90;;;;;;;15.90;55.68;97619.72;5047143;28;20022;-26
2023/01/06 22:18:06;;;;;;;9.23;5.60;;;;;;;15.83;56.14;97606.22;5041573;28;20028;-26
2023/01/06 22:20:32;;;;;;;8.43;5.93;;;;;;;15.85;56.01;97611.25;5037587;28;20025;-26
2023/01/06 22:23:01;;;;;;;8.73;6.05;;;;;;;15.85;55.82;97611.25;5042192;28;20116;-25
2023/01/06 22:25:26;;;;;;;8.63;5.65;;;;;;;15.85;56.09;97614.00;5036060;28;20096;-26
2023/01/06 22:27:52;;;;;;;10.55;5.95;;;;;;;15.84;56.13;97609.72;5050962;28;20119;-26
2023/01/06 22:30:17;;;;;;;9.18;5.47;;;;;;;15.87;55.96;97614.34;5038039;28;20029;-26
2023/01/06 22:33:19;;;;;;;7.97;5.47;;;;;;;15.83;56.19;97614.41;5035017;28;20099;-26
2023/01/06 22:35:45;;;;;;;7.15;5.10;;;;;;;15.84;55.99;97610.50;5020966;28;20116;-26
2023/01/06 22:38:12;;;;;;;8.13;5.07;;;;;;;15.81;55.97;97614.13;5043661;28;20080;-26
2023/01/06 22:40:37;;;;;;;8.00;5.03;;;;;;;15.60;56.72;97612.69;5035667;28;20029;-26
2023/01/06 22:43:04;;;;;;;8.27;5.35;;;;;;;15.63;56.82;97602.88;5035030;28;20074;-26
2023/01/06 22:45:30;;;;;;;8.23;5.50;;;;;;;15.70;56.50;97605.44;5043618;28;20025;-26
2023/01/06 22:47:55;;;;;;;8.15;5.30;;;;;;;15.79;56.25;97597.34;5034806;28;20060;-26
2023/01/06 22:50:21;;;;;;;6.57;4.82;;;;;;;15.71;56.45;97601.47;5029797;28;20031;-25
2023/01/06 22:52:47;;;;;;;6.78;5.03;;;;;;;15.85;56.08;97612.03;5046041;28;20466;-26
2023/01/06 22:55:12;;;;;;;8.15;5.30;;;;;;;15.75;56.40;97604.88;5042516;28;20098;-25
2023/01/06 22:57:38;;;;;;;8.38;5.30;;;;;;;15.60;56.71;97607.22;5050758;28;20121;-26
2023/01/06 23:00:11;;;;;;;7.32;4.78;;;;;;;15.74;56.46;97606.09;5039527;28;20021;-26
2023/01/06 23:02:36;;;;;;;7.95;4.93;;;;;;;15.76;56.22;97598.97;5044093;28;20060;-26
2023/01/06 23:05:01;;;;;;;9.02;5.38;;;;;;;15.77;56.17;97600.53;5036220;28;20118;-26
2023/01/06 23:07:27;;;;;;;5.43;4.60;;;;;;;15.71;56.43;97596.75;5038727;28;20032;-26
2023/01/06 23:09:52;;;;;;;7.70;4.57;;;;;;;15.78;56.32;97596.59;5044017;28;20132;-26
2023/01/06 23:12:18;;;;;;;7.32;5.07;;;;;;;15.78;56.16;97602.06;5043565;28;20073;-26
2023/01/06 23:14:43;;;;;;;6.90;4.90;;;;;;;15.82;56.01;97589.03;5039909;28;20405;-26
2023/01/06 23:17:10;;;;;;;7.30;4.90;;;;;;;15.85;55.89;97589.38;5045876;28;20025;-26
2023/01/06 23:19:36;;;;;;;9.00;5.13;;;;;;;15.84;56.13;97591.34;5040478;28;20420;-26
2023/01/06 23:22:01;;;;;;;8.35;5.47;;;;;;;15.89;55.83;97598.25;5054031;28;20027;-25
2023/01/06 23:24:27;;;;;;;8.40;5.55;;;;;;;15.76;56.17;97592.75;5051197;28;20432;-25
2023/01/06 23:26:52;;;;;;;8.13;5.75;;;;;;;15.74;56.28;97589.66;5043782;28;20029;-26
2023/01/06 23:43:41;;;;;;;8.48;5.50;;;;;;;15.66;56.70;97585.59;5038054;28;20120;-26
2023/01/06 23:46:09;;;;;;;9.10;5.53;;;;;;;15.67;56.46;97578.94;5034935;28;20061;-27
2023/01/06 23:48:35;;;;;;;9.68;5.68;;;;;;;15.60;56.93;97573.63;5025793;28;20025;-26
2023/01/06 23:51:02;;;;;;;7.80;5.40;;;;;;;15.67;56.49;97568.00;5041695;28;20446;-27
2023/01/06 23:53:29;;;;;;;10.52;6.03;;;;;;;15.76;56.36;97570.88;5036058;28;20052;-26
2023/01/06 23:55:59;;;;;;;6.53;5.45;;;;;;;15.77;56.29;97580.59;5036238;28;20412;-25
2023/01/06 23:58:26;;;;;;;7.68;5.32;;;;;;;15.85;56.10;97573.72;5034751;28;20104;-25
